createdAt,value
2023-03-25T00:01:48.482Z,9.47
2023-03-25T00:04:17.695Z,9.76
2023-03-25T00:06:46.932Z,9.96
2023-03-25T00:09:14.695Z,9.71
2023-03-25T00:11:42.487Z,9.83
2023-03-25T00:14:12.213Z,9.88
2023-03-25T00:16:40.132Z,9.71
2023-03-25T00:19:09.361Z,9.60
2023-03-25T00:21:37.472Z,9.22
2023-03-25T00:24:05.609Z,9.91
2023-03-25T00:26:33.423Z,9.27
2023-03-25T00:29:01.218Z,9.44
2023-03-25T00:31:29.077Z,9.74
2023-03-25T00:33:58.054Z,9.55
2023-03-25T00:36:27.400Z,9.67
2023-03-25T00:38:55.335Z,9.59
2023-03-25T00:41:25.466Z,9.67
2023-03-25T00:43:55.435Z,9.75
2023-03-25T00:46:24.024Z,9.54
2023-03-25T00:48:52.638Z,9.29
2023-03-25T00:51:21.765Z,9.52
2023-03-25T00:53:54.814Z,9.54
2023-03-25T00:56:23.274Z,9.63
2023-03-25T00:58:51.462Z,9.60
2023-03-25T01:01:23.481Z,9.67
2023-03-25T01:03:57.627Z,9.89
2023-03-25T01:06:29.794Z,10.00
2023-03-25T01:09:00.586Z,9.81
2023-03-25T01:11:30.874Z,10.15
2023-03-25T01:14:00.215Z,10.07
2023-03-25T01:16:28.975Z,10.05
2023-03-25T01:18:57.232Z,10.07
2023-03-25T01:21:26.624Z,9.96
2023-03-25T01:23:54.449Z,10.08
2023-03-25T01:26:23.563Z,9.94
2023-03-25T01:28:51.406Z,10.00
2023-03-25T01:31:19.217Z,10.01
2023-03-25T01:33:47.017Z,10.07
2023-03-25T01:36:14.809Z,9.99
2023-03-25T01:38:43.723Z,10.07
2023-03-25T01:41:11.986Z,9.95
2023-03-25T01:43:41.650Z,9.92
2023-03-25T01:46:15.081Z,10.07
2023-03-25T01:48:45.417Z,9.80
2023-03-25T01:51:17.780Z,9.98
2023-03-25T01:53:45.874Z,9.73
2023-03-25T01:56:19.586Z,9.64
2023-03-25T01:58:48.833Z,9.51
2023-03-25T02:01:21.665Z,9.62
2023-03-25T02:03:52.973Z,9.38
2023-03-25T02:06:28.526Z,9.42
2023-03-25T02:08:59.224Z,9.47
2023-03-25T02:11:29.436Z,9.45
2023-03-25T02:14:01.448Z,9.54
2023-03-25T02:16:38.038Z,9.52
2023-03-25T02:19:42.591Z,9.97
2023-03-25T02:22:38.651Z,9.95
2023-03-25T02:25:45.834Z,9.81
2023-03-25T02:28:25.681Z,9.86
2023-03-25T02:31:28.477Z,9.89
2023-03-25T02:34:31.438Z,9.90
2023-03-25T02:37:30.427Z,9.98
2023-03-25T02:40:07.043Z,9.93
2023-03-25T02:42:41.511Z,10.10
2023-03-25T02:45:15.541Z,10.09
2023-03-25T02:47:48.174Z,9.88
2023-03-25T02:50:20.811Z,9.99
2023-03-25T02:52:53.078Z,10.11
2023-03-25T02:55:25.424Z,10.00
2023-03-25T02:57:57.299Z,9.91
2023-03-25T03:00:28.607Z,9.78
2023-03-25T03:03:00.233Z,9.96
2023-03-25T03:05:32.635Z,9.97
2023-03-25T03:08:19.619Z,9.57
2023-03-25T03:10:54.435Z,9.77
2023-03-25T03:13:34.804Z,9.92
2023-03-25T03:16:11.908Z,10.09
2023-03-25T03:18:46.165Z,10.02
2023-03-25T03:21:23.156Z,9.94
2023-03-25T03:23:59.264Z,10.07
2023-03-25T03:26:34.903Z,9.75
2023-03-25T03:29:11.438Z,9.84
2023-03-25T03:31:48.342Z,9.59
2023-03-25T03:34:41.162Z,10.00
2023-03-25T03:37:11.535Z,9.80
2023-03-25T03:39:40.367Z,9.95
2023-03-25T03:42:15.988Z,9.89
2023-03-25T03:44:50.533Z,9.73
2023-03-25T03:47:23.181Z,9.96
2023-03-25T03:49:55.009Z,9.92
2023-03-25T03:52:26.448Z,9.84
2023-03-25T03:54:58.692Z,10.16
2023-03-25T03:57:30.157Z,10.37
2023-03-25T04:00:05.615Z,9.64
2023-03-25T04:02:43.147Z,9.90
2023-03-25T04:05:14.527Z,9.63
2023-03-25T04:07:46.745Z,9.84
2023-03-25T04:10:18.338Z,9.72
2023-03-25T04:12:51.138Z,9.70
2023-03-25T04:15:19.609Z,9.69
2023-03-25T04:17:48.014Z,9.72
2023-03-25T04:20:19.096Z,9.76
2023-03-25T04:22:46.900Z,9.72
2023-03-25T04:25:15.057Z,9.89
2023-03-25T04:27:48.825Z,9.79
2023-03-25T04:30:19.162Z,9.88
2023-03-25T04:32:47.525Z,9.61
2023-03-25T04:35:16.845Z,9.49
2023-03-25T04:37:45.736Z,9.53
2023-03-25T04:40:16.305Z,9.85
2023-03-25T04:42:46.435Z,9.59
2023-03-25T04:45:16.859Z,9.46
2023-03-25T04:47:47.726Z,9.64
2023-03-25T04:50:20.787Z,9.81
2023-03-25T04:52:48.865Z,10.07
2023-03-25T04:55:17.695Z,9.97
2023-03-25T04:57:46.757Z,10.13
2023-03-25T05:00:16.423Z,9.76
2023-03-25T05:02:47.021Z,9.69
2023-03-25T05:05:18.382Z,9.86
2023-03-25T05:07:47.162Z,9.97
2023-03-25T05:10:15.164Z,9.52
2023-03-25T05:12:43.369Z,9.93
2023-03-25T05:15:12.864Z,9.81
2023-03-25T05:17:41.279Z,9.83
2023-03-25T05:20:11.515Z,9.69
2023-03-25T05:22:39.455Z,9.60
2023-03-25T05:25:08.219Z,9.55
2023-03-25T05:27:37.689Z,9.22
2023-03-25T05:30:06.724Z,9.21
2023-03-25T05:32:34.658Z,9.63
2023-03-25T05:35:03.390Z,9.61
2023-03-25T05:37:32.667Z,9.72
2023-03-25T05:40:00.644Z,9.40
2023-03-25T05:42:28.411Z,9.57
2023-03-25T05:44:57.631Z,9.54
2023-03-25T05:47:26.335Z,9.52
2023-03-25T05:49:54.458Z,9.19
2023-03-25T05:52:24.450Z,9.31
2023-03-25T05:54:53.822Z,9.62
2023-03-25T05:57:21.619Z,9.21
2023-03-25T05:59:49.419Z,9.33
2023-03-25T06:02:18.381Z,9.27
2023-03-25T06:04:47.313Z,9.16
2023-03-25T06:07:19.757Z,9.17
2023-03-25T06:09:48.308Z,9.28
2023-03-25T06:12:19.754Z,9.46
2023-03-25T06:14:47.842Z,9.61
2023-03-25T06:17:18.979Z,9.78
2023-03-25T06:19:47.213Z,9.05
2023-03-25T06:22:15.519Z,9.44
2023-03-25T06:24:44.220Z,9.92
2023-03-25T06:27:15.124Z,9.70
2023-03-25T06:29:45.613Z,9.52
2023-03-25T06:32:15.469Z,9.46
2023-03-25T06:34:44.587Z,9.56
2023-03-25T06:37:12.647Z,9.42
2023-03-25T06:39:40.444Z,10.05
2023-03-25T06:42:17.784Z,9.77
2023-03-25T06:45:02.957Z,10.12
2023-03-25T06:47:56.669Z,10.16
2023-03-25T06:50:24.544Z,10.22
2023-03-25T06:52:52.311Z,9.46
2023-03-25T06:55:20.298Z,10.47
2023-03-25T06:57:48.044Z,9.97
2023-03-25T07:00:20.364Z,10.26
2023-03-25T07:02:48.191Z,10.17
2023-03-25T07:05:16.143Z,10.40
2023-03-25T07:07:43.998Z,10.37
2023-03-25T07:10:13.309Z,10.14
2023-03-25T07:12:41.381Z,9.81
2023-03-25T07:15:09.848Z,10.17
2023-03-25T07:17:43.096Z,9.71
2023-03-25T07:20:13.430Z,9.66
2023-03-25T07:22:42.312Z,9.18
2023-03-25T07:25:10.757Z,9.46
2023-03-25T07:27:38.508Z,9.86
2023-03-25T07:30:11.557Z,9.98
2023-03-25T07:32:39.348Z,9.73
2023-03-25T07:35:10.358Z,9.64
2023-03-25T07:37:38.270Z,10.04
2023-03-25T07:40:07.350Z,9.95
2023-03-25T07:42:37.121Z,10.36
2023-03-25T07:45:25.852Z,10.41
2023-03-25T07:47:54.387Z,10.55
2023-03-25T07:50:25.183Z,10.65
2023-03-25T07:52:54.488Z,10.89
2023-03-25T07:55:22.911Z,10.54
2023-03-25T07:57:50.787Z,10.99
2023-03-25T08:00:18.865Z,11.04
2023-03-25T08:02:46.810Z,11.24
2023-03-25T08:05:16.260Z,10.37
2023-03-25T08:07:45.565Z,10.36
2023-03-25T08:10:15.139Z,10.11
2023-03-25T08:12:43.196Z,10.76
2023-03-25T08:15:12.741Z,10.60
2023-03-25T08:17:40.971Z,10.33
2023-03-25T08:20:11.359Z,10.43
2023-03-25T08:22:39.129Z,10.12
2023-03-25T08:25:09.471Z,10.54
2023-03-25T08:27:37.266Z,10.57
2023-03-25T08:30:05.845Z,10.47
2023-03-25T08:32:36.456Z,10.53
2023-03-25T08:35:05.600Z,10.27
2023-03-25T08:37:35.280Z,10.50
2023-03-25T08:40:06.897Z,10.34
2023-03-25T08:42:36.291Z,10.75
2023-03-25T08:45:04.361Z,11.08
2023-03-25T08:47:32.627Z,11.41
2023-03-25T08:50:00.772Z,11.18
2023-03-25T08:52:28.546Z,11.04
2023-03-25T08:54:57.473Z,11.40
2023-03-25T08:57:25.284Z,11.46
2023-03-25T08:59:54.515Z,11.47
2023-03-25T09:02:22.289Z,11.16
2023-03-25T09:04:50.316Z,10.95
2023-03-25T09:07:19.830Z,10.66
2023-03-25T09:09:47.842Z,10.40
2023-03-25T09:12:15.635Z,11.11
2023-03-25T09:14:43.634Z,11.24
2023-03-25T09:17:12.796Z,11.54
2023-03-25T09:19:40.709Z,11.21
2023-03-25T09:22:08.959Z,10.89
2023-03-25T09:24:36.855Z,11.00
2023-03-25T09:27:04.853Z,11.81
2023-03-25T09:29:32.652Z,11.20
2023-03-25T09:32:01.033Z,10.56
2023-03-25T09:34:31.037Z,11.22
2023-03-25T09:36:59.477Z,10.92
2023-03-25T09:39:27.619Z,11.22
2023-03-25T09:42:08.554Z,11.35
2023-03-25T09:44:42.534Z,11.47
2023-03-25T09:47:14.982Z,11.30
2023-03-25T09:49:53.476Z,11.43
2023-03-25T09:52:27.647Z,12.00
2023-03-25T09:55:00.778Z,12.25
2023-03-25T09:57:32.171Z,12.77
2023-03-25T10:00:04.075Z,12.74
2023-03-25T10:02:41.322Z,12.14
2023-03-25T10:05:24.096Z,11.74
2023-03-25T10:08:06.556Z,11.65
2023-03-25T10:10:41.538Z,11.20
2023-03-25T10:13:19.794Z,11.72
2023-03-25T10:15:55.350Z,11.42
2023-03-25T10:18:54.007Z,12.28
2023-03-25T10:21:29.967Z,12.58
2023-03-25T10:24:07.201Z,12.87
2023-03-25T10:26:44.484Z,13.18
2023-03-25T10:29:15.768Z,12.75
2023-03-25T10:31:52.402Z,13.18
2023-03-25T10:34:24.658Z,13.81
2023-03-25T10:36:57.757Z,13.48
2023-03-25T10:39:34.002Z,12.89
2023-03-25T10:42:05.460Z,13.59
2023-03-25T10:44:33.486Z,14.07
2023-03-25T10:47:06.212Z,12.89
2023-03-25T10:49:37.050Z,12.87
2023-03-25T10:52:06.961Z,12.24
2023-03-25T10:54:38.985Z,12.03
2023-03-25T10:57:10.140Z,12.06
2023-03-25T10:59:43.368Z,11.72
2023-03-25T11:02:16.362Z,11.55
2023-03-25T11:04:45.841Z,11.42
2023-03-25T11:07:20.701Z,11.70
2023-03-25T11:09:51.806Z,12.64
2023-03-25T11:12:30.169Z,13.21
2023-03-25T11:15:10.341Z,13.36
2023-03-25T11:17:39.785Z,12.55
2023-03-25T11:20:17.733Z,12.85
2023-03-25T11:22:52.283Z,12.42
2023-03-25T11:25:25.793Z,12.74
2023-03-25T11:27:59.306Z,11.70
2023-03-25T11:30:30.459Z,11.69
2023-03-25T11:33:02.300Z,12.02
2023-03-25T11:35:34.372Z,12.33
2023-03-25T11:38:15.619Z,12.18
2023-03-25T11:40:53.712Z,12.77
2023-03-25T11:43:24.200Z,12.12
2023-03-25T11:45:52.906Z,12.24
2023-03-25T11:48:24.129Z,12.41
2023-03-25T11:51:00.739Z,13.98
2023-03-25T11:53:33.805Z,15.54
2023-03-25T11:56:08.367Z,19.38
2023-03-25T11:58:39.295Z,19.68
2023-03-25T12:01:09.109Z,19.64
2023-03-25T12:03:39.596Z,17.63
2023-03-25T12:06:18.381Z,16.10
2023-03-25T12:08:52.807Z,14.53
2023-03-25T12:11:25.316Z,13.39
2023-03-25T12:14:18.491Z,13.31
2023-03-25T12:16:52.308Z,14.73
2023-03-25T12:19:28.522Z,17.17
2023-03-25T12:22:06.505Z,17.69
2023-03-25T12:24:49.274Z,16.13
2023-03-25T12:27:32.208Z,14.73
2023-03-25T12:30:10.878Z,13.53
2023-03-25T12:32:46.568Z,13.08
2023-03-25T12:35:29.716Z,13.61
2023-03-25T12:38:23.053Z,14.52
2023-03-25T12:41:06.093Z,13.79
2023-03-25T12:43:47.280Z,13.05
2023-03-25T12:46:28.418Z,14.84
2023-03-25T12:49:08.708Z,16.87
2023-03-25T12:51:45.675Z,20.03
2023-03-25T12:54:29.917Z,19.05
2023-03-25T12:57:09.071Z,19.30
2023-03-25T13:00:07.931Z,18.76
2023-03-25T13:02:54.759Z,20.55
2023-03-25T13:05:28.900Z,19.64
2023-03-25T13:08:03.766Z,18.55
2023-03-25T13:10:35.680Z,21.01
2023-03-25T13:13:11.726Z,20.66
2023-03-25T13:15:45.402Z,20.86
2023-03-25T13:18:16.789Z,21.01
2023-03-25T13:20:51.588Z,21.56
2023-03-25T13:23:24.182Z,24.83
2023-03-25T13:25:57.623Z,21.67
2023-03-25T13:28:38.234Z,20.73
2023-03-25T13:31:09.289Z,19.33
2023-03-25T13:33:44.261Z,17.52
2023-03-25T13:36:20.095Z,15.60
2023-03-25T13:38:52.106Z,15.67
2023-03-25T13:41:26.003Z,17.90
2023-03-25T13:44:05.268Z,16.11
2023-03-25T13:46:38.275Z,14.78
2023-03-25T13:49:11.414Z,14.13
2023-03-25T13:51:39.209Z,12.09
2023-03-25T13:54:14.681Z,12.03
2023-03-25T13:57:14.932Z,12.46
2023-03-25T14:00:15.344Z,11.72
2023-03-25T14:03:02.960Z,12.25
2023-03-25T14:05:56.286Z,13.90
2023-03-25T14:09:13.734Z,15.33
2023-03-25T14:11:46.252Z,14.94
2023-03-25T14:14:17.935Z,17.76
2023-03-25T14:16:49.971Z,19.40
2023-03-25T14:19:23.475Z,18.53
2023-03-25T14:21:53.459Z,18.22
2023-03-25T14:24:27.395Z,17.76
2023-03-25T14:27:01.122Z,16.05
2023-03-25T14:29:38.298Z,15.11
2023-03-25T14:32:32.036Z,13.92
2023-03-25T14:35:33.783Z,14.04
2023-03-25T14:38:21.750Z,17.03
2023-03-25T14:41:03.084Z,14.13
2023-03-25T14:43:34.161Z,13.59
2023-03-25T14:46:06.570Z,13.15
2023-03-25T14:48:44.908Z,12.47
2023-03-25T14:51:23.140Z,12.48
2023-03-25T14:54:00.482Z,11.83
2023-03-25T14:56:35.175Z,11.36
2023-03-25T14:59:10.425Z,10.91
2023-03-25T15:01:40.438Z,10.20
2023-03-25T15:04:14.873Z,10.39
2023-03-25T15:06:43.887Z,9.85
2023-03-25T15:09:15.857Z,10.07
2023-03-25T15:11:46.395Z,11.04
2023-03-25T15:14:17.910Z,12.18
2023-03-25T15:17:08.167Z,11.36
2023-03-25T15:20:27.366Z,12.34
2023-03-25T15:23:25.340Z,12.38
2023-03-25T15:25:55.717Z,11.53
2023-03-25T15:28:37.725Z,11.27
2023-03-25T15:31:22.681Z,12.42
2023-03-25T15:34:11.528Z,12.30
2023-03-25T15:37:46.185Z,11.53
2023-03-25T15:40:33.215Z,10.85
2023-03-25T15:43:22.195Z,10.90
2023-03-25T15:46:25.547Z,11.05
2023-03-25T15:49:18.152Z,11.11
2023-03-25T15:51:57.933Z,11.28
2023-03-25T15:54:40.470Z,10.85
2023-03-25T15:57:19.318Z,10.56
2023-03-25T15:59:55.553Z,10.66
2023-03-25T16:02:29.451Z,11.71
2023-03-25T16:04:58.073Z,11.37
2023-03-25T16:07:30.537Z,11.43
2023-03-25T16:10:10.179Z,11.70
2023-03-25T16:12:39.361Z,11.72
2023-03-25T16:15:08.455Z,11.55
2023-03-25T16:17:36.675Z,11.64
2023-03-25T16:20:07.544Z,11.38
2023-03-25T16:22:37.702Z,10.94
2023-03-25T16:25:14.091Z,10.77
2023-03-25T16:27:46.896Z,11.03
2023-03-25T16:30:24.022Z,10.99
2023-03-25T16:32:52.344Z,11.26
2023-03-25T16:35:26.683Z,11.18
2023-03-25T16:37:57.163Z,10.85
2023-03-25T16:40:28.969Z,10.96
2023-03-25T16:43:06.127Z,10.72
2023-03-25T16:45:35.204Z,10.56
2023-03-25T16:48:08.843Z,10.72
2023-03-25T16:50:37.551Z,10.76
2023-03-25T16:53:06.911Z,11.18
2023-03-25T16:55:47.207Z,10.92
2023-03-25T16:58:20.989Z,10.98
2023-03-25T17:00:51.971Z,10.78
2023-03-25T17:03:38.453Z,10.89
2023-03-25T17:06:13.219Z,10.84
2023-03-25T17:08:41.091Z,10.94
2023-03-25T17:11:10.417Z,10.67
2023-03-25T17:13:43.757Z,10.82
2023-03-25T17:16:12.081Z,10.70
2023-03-25T17:18:40.804Z,10.50
2023-03-25T17:21:12.366Z,10.61
2023-03-25T17:23:45.835Z,10.54
2023-03-25T17:26:17.386Z,10.30
2023-03-25T17:28:59.873Z,10.91
2023-03-25T17:31:33.795Z,10.68
2023-03-25T17:34:05.361Z,10.80
2023-03-25T17:36:35.457Z,10.54
2023-03-25T17:39:06.370Z,10.84
2023-03-25T17:41:38.733Z,10.74
2023-03-25T17:44:08.523Z,10.85
2023-03-25T17:46:36.391Z,10.69
2023-03-25T17:49:14.859Z,10.26
2023-03-25T17:51:42.697Z,10.08
2023-03-25T17:54:10.543Z,10.00
2023-03-25T17:56:39.461Z,10.01
2023-03-25T17:59:16.623Z,9.76
2023-03-25T18:01:45.247Z,9.63
2023-03-25T18:04:15.131Z,9.52
2023-03-25T18:06:44.163Z,9.44
2023-03-25T18:09:17.161Z,9.29
2023-03-25T18:11:46.320Z,9.24
2023-03-25T18:14:16.020Z,9.22
2023-03-25T18:16:43.927Z,9.20
2023-03-25T18:19:15.977Z,9.09
2023-03-25T18:21:44.262Z,9.07
2023-03-25T18:24:13.403Z,9.27
2023-03-25T18:26:43.465Z,9.34
2023-03-25T18:29:13.498Z,9.09
2023-03-25T18:31:42.795Z,9.15
2023-03-25T18:34:12.944Z,9.30
2023-03-25T18:36:40.949Z,9.27
2023-03-25T18:39:13.670Z,9.62
2023-03-25T18:41:41.723Z,9.58
2023-03-25T18:44:09.937Z,9.30
2023-03-25T18:46:38.049Z,9.64
2023-03-25T18:49:13.336Z,9.60
2023-03-25T18:51:41.180Z,9.54
2023-03-25T18:54:09.025Z,9.73
2023-03-25T18:56:37.262Z,9.84
2023-03-25T18:59:05.038Z,9.98
2023-03-25T19:01:32.953Z,9.99
2023-03-25T19:04:02.828Z,10.10
2023-03-25T19:06:32.146Z,9.88
2023-03-25T19:09:00.106Z,9.93
2023-03-25T19:11:28.325Z,9.88
2023-03-25T19:13:56.159Z,10.19
2023-03-25T19:16:23.985Z,10.08
2023-03-25T19:18:51.799Z,9.83
2023-03-25T19:21:21.019Z,10.08
2023-03-25T19:23:51.748Z,10.02
2023-03-25T19:26:19.528Z,10.19
2023-03-25T19:28:47.343Z,10.28
2023-03-25T19:31:16.214Z,10.04
2023-03-25T19:33:44.180Z,10.16
2023-03-25T19:36:14.881Z,10.05
2023-03-25T19:38:43.779Z,10.12
2023-03-25T19:41:15.420Z,10.18
2023-03-25T19:43:43.539Z,10.04
2023-03-25T19:46:11.489Z,9.82
2023-03-25T19:48:39.704Z,10.11
2023-03-25T19:51:07.534Z,10.16
2023-03-25T19:53:35.395Z,10.17
2023-03-25T19:56:04.775Z,10.39
2023-03-25T19:58:35.447Z,9.91
2023-03-25T20:01:03.277Z,9.95
2023-03-25T20:03:32.926Z,9.47
2023-03-25T20:06:02.213Z,9.40
2023-03-25T20:08:30.334Z,9.58
2023-03-25T20:10:58.411Z,9.54
2023-03-25T20:13:26.628Z,9.56
2023-03-25T20:15:55.965Z,9.84
2023-03-25T20:18:24.067Z,9.80
2023-03-25T20:20:51.802Z,8.97
2023-03-25T20:23:19.661Z,8.90
2023-03-25T20:25:48.230Z,9.14
2023-03-25T20:28:18.372Z,8.63
2023-03-25T20:30:46.170Z,8.71
2023-03-25T20:33:15.385Z,8.53
2023-03-25T20:35:43.857Z,8.91
2023-03-25T20:38:14.189Z,8.98
2023-03-25T20:40:44.851Z,8.79
2023-03-25T20:43:14.554Z,8.95
2023-03-25T20:45:43.396Z,8.98
2023-03-25T20:48:11.385Z,8.86
2023-03-25T20:50:40.649Z,9.02
2023-03-25T20:53:08.773Z,9.08
2023-03-25T20:55:37.279Z,8.98
2023-03-25T20:58:05.768Z,8.92
2023-03-25T21:00:34.093Z,9.13
2023-03-25T21:03:02.189Z,9.17
2023-03-25T21:05:29.963Z,9.13
2023-03-25T21:07:59.175Z,9.30
2023-03-25T21:10:27.267Z,9.28
2023-03-25T21:12:55.045Z,9.31
2023-03-25T21:15:23.089Z,9.40
2023-03-25T21:17:50.909Z,9.13
2023-03-25T21:20:21.860Z,9.36
2023-03-25T21:22:50.853Z,9.42
2023-03-25T21:25:20.148Z,9.21
2023-03-25T21:27:47.965Z,9.21
2023-03-25T21:30:16.441Z,9.11
2023-03-25T21:32:44.407Z,8.70
2023-03-25T21:35:12.325Z,8.94
2023-03-25T21:37:40.531Z,9.02
2023-03-25T21:40:11.457Z,9.01
2023-03-25T21:42:42.049Z,9.02
2023-03-25T21:45:11.900Z,8.99
2023-03-25T21:47:39.985Z,8.69
2023-03-25T21:50:10.519Z,8.96
2023-03-25T21:52:38.553Z,8.71
2023-03-25T21:55:07.402Z,8.98
2023-03-25T21:57:37.819Z,8.67
2023-03-25T22:00:09.551Z,9.00
2023-03-25T22:02:39.935Z,8.96
2023-03-25T22:05:08.802Z,8.82
2023-03-25T22:07:36.629Z,8.87
2023-03-25T22:10:05.052Z,8.72
2023-03-25T22:12:33.080Z,8.83
2023-03-25T22:15:01.089Z,8.72
2023-03-25T22:17:33.497Z,8.87
2023-03-25T22:20:01.349Z,8.64
2023-03-25T22:22:29.998Z,8.58
2023-03-25T22:24:58.082Z,8.62
2023-03-25T22:27:26.035Z,8.44
2023-03-25T22:29:53.988Z,8.82
2023-03-25T22:32:24.230Z,8.66
2023-03-25T22:34:53.547Z,8.37
2023-03-25T22:37:21.813Z,8.63
2023-03-25T22:39:52.425Z,8.63
2023-03-25T22:42:20.271Z,8.45
2023-03-25T22:44:48.367Z,8.27
2023-03-25T22:47:16.270Z,8.66
2023-03-25T22:49:44.057Z,8.59
2023-03-25T22:52:13.227Z,8.70
2023-03-25T22:54:41.011Z,8.59
2023-03-25T22:57:08.897Z,8.38
2023-03-25T22:59:38.633Z,8.73
2023-03-25T23:02:07.422Z,8.46
2023-03-25T23:04:35.296Z,8.43
2023-03-25T23:07:07.729Z,8.66
2023-03-25T23:09:45.097Z,8.43
2023-03-25T23:12:15.580Z,8.53
2023-03-25T23:14:48.390Z,8.48
2023-03-25T23:17:16.642Z,8.73
2023-03-25T23:19:45.408Z,8.72
2023-03-25T23:22:13.211Z,8.44
2023-03-25T23:24:42.348Z,8.52
2023-03-25T23:27:12.138Z,8.55
2023-03-25T23:29:41.754Z,8.71
2023-03-25T23:32:10.834Z,8.81
2023-03-25T23:34:40.171Z,8.54
2023-03-25T23:37:09.228Z,8.64
2023-03-25T23:39:40.249Z,8.48
2023-03-25T23:42:09.546Z,8.41
2023-03-25T23:44:37.332Z,8.60
2023-03-25T23:47:06.124Z,8.88
2023-03-25T23:49:38.119Z,8.83
2023-03-25T23:52:10.947Z,8.98
2023-03-25T23:54:39.318Z,9.00
2023-03-25T23:57:07.171Z,8.68
2023-03-25T23:59:36.377Z,8.64
